createdAt,value
2023-01-19T00:01:46.888Z,25.20
2023-01-19T00:04:16.263Z,19.98
2023-01-19T00:06:46.722Z,22.03
2023-01-19T00:09:16.104Z,22.60
2023-01-19T00:11:45.166Z,27.63
2023-01-19T00:14:14.867Z,25.95
2023-01-19T00:16:43.850Z,20.45
2023-01-19T00:19:13.312Z,24.50
2023-01-19T00:21:42.417Z,20.30
2023-01-19T00:24:14.688Z,21.27
2023-01-19T00:26:43.994Z,23.27
2023-01-19T00:29:14.511Z,28.85
2023-01-19T00:31:44.684Z,23.23
2023-01-19T00:34:14.340Z,24.48
2023-01-19T00:36:43.973Z,26.38
2023-01-19T00:39:14.809Z,20.60
2023-01-19T00:42:01.808Z,22.50
2023-01-19T00:44:31.285Z,22.85
2023-01-19T00:47:01.101Z,20.57
2023-01-19T00:49:30.710Z,26.13
2023-01-19T00:51:59.752Z,21.55
2023-01-19T00:54:30.562Z,28.45
2023-01-19T00:56:59.648Z,23.27
2023-01-19T00:59:28.903Z,19.92
2023-01-19T01:01:58.346Z,24.73
2023-01-19T01:04:27.892Z,27.67
2023-01-19T01:06:57.189Z,28.77
2023-01-19T01:09:26.631Z,27.20
2023-01-19T01:11:57.893Z,27.20
2023-01-19T01:14:29.317Z,23.70
2023-01-19T01:16:58.649Z,24.25
2023-01-19T01:19:28.079Z,29.10
2023-01-19T01:21:57.278Z,27.17
2023-01-19T01:24:26.726Z,18.63
2023-01-19T01:26:57.328Z,23.83
2023-01-19T01:29:26.906Z,21.92
2023-01-19T01:31:55.976Z,24.27
2023-01-19T01:34:25.469Z,25.90
2023-01-19T01:36:54.615Z,19.00
2023-01-19T01:39:24.063Z,28.17
2023-01-19T01:41:53.144Z,20.63
2023-01-19T01:44:53.047Z,24.48
2023-01-19T01:47:28.225Z,17.98
2023-01-19T01:50:03.322Z,23.30
2023-01-19T01:52:36.600Z,20.13
2023-01-19T01:55:08.186Z,20.67
2023-01-19T01:57:40.555Z,22.85
2023-01-19T02:00:13.242Z,20.73
2023-01-19T02:02:51.352Z,22.42
2023-01-19T02:05:25.565Z,24.48
2023-01-19T02:08:18.342Z,20.65
2023-01-19T02:11:06.492Z,24.77
2023-01-19T02:13:39.892Z,18.63
2023-01-19T02:16:12.950Z,20.05
2023-01-19T02:18:43.076Z,22.83
2023-01-19T02:21:18.984Z,21.50
2023-01-19T02:23:51.898Z,17.65
2023-01-19T02:26:24.003Z,25.67
2023-01-19T02:28:58.529Z,26.73
2023-01-19T02:31:29.786Z,24.60
2023-01-19T02:34:00.593Z,24.15
2023-01-19T02:36:36.836Z,23.83
2023-01-19T02:39:09.681Z,22.90
2023-01-19T02:41:44.288Z,22.02
2023-01-19T02:44:16.012Z,21.48
2023-01-19T02:46:45.835Z,21.17
2023-01-19T02:49:14.917Z,25.65
2023-01-19T02:51:45.643Z,27.02
2023-01-19T02:54:37.642Z,27.85
2023-01-19T02:57:25.919Z,19.20
2023-01-19T03:00:08.094Z,19.27
2023-01-19T03:02:51.102Z,22.42
2023-01-19T03:05:30.526Z,16.25
2023-01-19T03:08:09.672Z,19.88
2023-01-19T03:10:49.299Z,17.55
2023-01-19T03:15:55.760Z,16.35
2023-01-19T03:18:29.040Z,17.20
2023-01-19T03:21:01.698Z,19.30
2023-01-19T03:23:33.310Z,20.95
2023-01-19T03:26:06.333Z,15.65
2023-01-19T03:28:40.138Z,19.40
2023-01-19T03:31:23.905Z,12.40
2023-01-19T03:33:57.702Z,15.98
2023-01-19T03:36:31.983Z,18.60
2023-01-19T03:39:03.591Z,15.80
2023-01-19T03:41:36.042Z,15.90
2023-01-19T03:44:06.964Z,16.52
2023-01-19T03:46:36.609Z,16.95
2023-01-19T03:49:07.703Z,13.88
2023-01-19T03:51:39.054Z,13.50
2023-01-19T03:54:10.820Z,12.85
2023-01-19T03:56:41.430Z,14.60
2023-01-19T03:59:10.898Z,12.57
2023-01-19T04:01:39.982Z,15.63
2023-01-19T04:04:09.336Z,19.35
2023-01-19T04:06:38.484Z,16.52
2023-01-19T04:09:08.201Z,10.65
2023-01-19T04:11:37.425Z,12.07
2023-01-19T04:14:08.258Z,14.15
2023-01-19T04:16:37.715Z,14.88
2023-01-19T04:19:07.073Z,11.80
2023-01-19T04:21:36.363Z,12.07
2023-01-19T04:24:06.032Z,17.48
2023-01-19T04:26:35.282Z,16.15
2023-01-19T04:29:04.595Z,12.68
2023-01-19T04:31:35.721Z,15.80
2023-01-19T04:34:05.590Z,13.63
2023-01-19T04:36:35.368Z,15.63
2023-01-19T04:39:05.147Z,14.30
2023-01-19T04:41:34.445Z,12.85
2023-01-19T04:44:04.328Z,12.85
2023-01-19T04:46:35.088Z,18.60
2023-01-19T04:49:04.644Z,14.05
2023-01-19T04:51:34.461Z,13.93
2023-01-19T04:54:04.069Z,16.38
2023-01-19T04:56:33.176Z,17.90
2023-01-19T04:59:03.012Z,12.40
2023-01-19T05:01:32.595Z,15.13
2023-01-19T05:04:06.550Z,15.60
2023-01-19T05:06:37.398Z,18.48
2023-01-19T05:09:08.081Z,14.75
2023-01-19T05:11:37.350Z,18.20
2023-01-19T05:14:06.908Z,25.10
2023-01-19T05:16:36.093Z,18.45
2023-01-19T05:19:06.857Z,15.45
2023-01-19T05:21:36.232Z,14.52
2023-01-19T05:24:05.819Z,18.00
2023-01-19T05:26:35.314Z,19.52
2023-01-19T05:29:04.708Z,15.98
2023-01-19T05:31:33.845Z,15.53
2023-01-19T05:34:03.350Z,11.00
2023-01-19T05:36:34.008Z,13.68
2023-01-19T05:39:03.457Z,12.90
2023-01-19T05:41:32.505Z,16.33
2023-01-19T05:44:01.986Z,15.48
2023-01-19T05:46:31.249Z,11.10
2023-01-19T05:51:35.327Z,14.30
2023-01-19T05:54:05.209Z,17.10
2023-01-19T05:56:35.545Z,21.17
2023-01-19T05:59:04.892Z,25.55
2023-01-19T06:01:34.828Z,27.08
2023-01-19T06:04:04.222Z,31.15
2023-01-19T06:06:34.966Z,35.28
2023-01-19T06:09:04.535Z,23.35
2023-01-19T06:11:33.572Z,18.02
2023-01-19T06:14:03.161Z,19.73
2023-01-19T06:16:32.469Z,16.30
2023-01-19T06:19:01.882Z,14.48
2023-01-19T06:21:33.081Z,16.92
2023-01-19T06:24:03.595Z,16.75
2023-01-19T06:26:32.996Z,18.73
2023-01-19T06:29:02.353Z,16.50
2023-01-19T06:31:31.660Z,15.05
2023-01-19T06:34:01.064Z,15.98
2023-01-19T06:36:30.239Z,16.17
2023-01-19T06:39:03.562Z,22.83
2023-01-19T06:41:33.255Z,17.00
2023-01-19T06:44:02.911Z,20.90
2023-01-19T06:46:32.465Z,16.70
2023-01-19T06:49:02.119Z,20.73
2023-01-19T06:51:31.310Z,16.38
2023-01-19T06:54:02.573Z,18.05
2023-01-19T06:56:31.863Z,23.02
2023-01-19T06:59:01.229Z,24.88
2023-01-19T07:01:30.480Z,27.38
2023-01-19T07:03:59.930Z,24.42
2023-01-19T07:06:29.453Z,24.60
2023-01-19T07:09:00.278Z,28.67
2023-01-19T07:11:33.224Z,25.55
2023-01-19T07:14:04.014Z,29.58
2023-01-19T07:16:34.162Z,32.20
2023-01-19T07:19:03.551Z,26.00
2023-01-19T07:21:32.759Z,29.53
2023-01-19T07:24:02.323Z,26.40
2023-01-19T07:26:32.907Z,26.33
2023-01-19T07:29:02.399Z,32.80
2023-01-19T07:31:31.619Z,30.00
2023-01-19T07:34:01.442Z,26.92
2023-01-19T07:36:30.509Z,29.50
2023-01-19T07:38:59.949Z,32.67
2023-01-19T07:41:29.134Z,33.37
2023-01-19T07:44:00.035Z,35.75
2023-01-19T07:46:29.228Z,28.08
2023-01-19T07:48:58.801Z,31.75
2023-01-19T07:51:28.343Z,31.95
2023-01-19T07:53:58.197Z,26.85
2023-01-19T07:56:27.896Z,25.25
2023-01-19T08:01:29.625Z,32.60
2023-01-19T08:03:59.196Z,33.22
2023-01-19T08:06:34.536Z,35.10
2023-01-19T08:09:05.886Z,33.40
2023-01-19T08:11:35.402Z,31.48
2023-01-19T08:14:06.954Z,34.58
2023-01-19T08:16:38.619Z,27.75
2023-01-19T08:19:08.136Z,37.67
2023-01-19T08:21:38.933Z,34.67
2023-01-19T08:24:18.079Z,34.63
2023-01-19T08:26:47.683Z,31.88
2023-01-19T08:29:17.127Z,32.97
2023-01-19T08:31:48.031Z,35.22
2023-01-19T08:34:17.883Z,40.97
2023-01-19T08:36:47.475Z,32.65
2023-01-19T08:39:18.029Z,35.65
2023-01-19T08:41:47.249Z,34.28
2023-01-19T08:44:17.096Z,36.10
2023-01-19T08:46:47.872Z,36.47
2023-01-19T08:49:17.348Z,39.42
2023-01-19T08:51:47.503Z,37.47
2023-01-19T08:54:18.529Z,45.50
2023-01-19T08:56:48.032Z,40.85
2023-01-19T08:59:18.029Z,39.30
2023-01-19T09:01:49.379Z,39.90
2023-01-19T09:04:18.956Z,38.83
2023-01-19T09:06:48.375Z,38.70
2023-01-19T09:09:17.796Z,35.22
2023-01-19T09:11:46.882Z,35.47
2023-01-19T09:14:16.322Z,31.50
2023-01-19T09:16:45.507Z,33.13
2023-01-19T09:19:16.519Z,32.88
2023-01-19T09:21:45.801Z,38.35
2023-01-19T09:24:15.185Z,41.13
2023-01-19T09:26:44.605Z,41.67
2023-01-19T09:29:14.005Z,38.53
2023-01-19T09:31:44.142Z,38.15
2023-01-19T09:34:15.830Z,45.97
2023-01-19T09:36:45.097Z,50.90
2023-01-19T09:39:14.487Z,39.42
2023-01-19T09:41:50.963Z,39.15
2023-01-19T09:44:29.131Z,41.72
2023-01-19T09:46:58.870Z,50.35
2023-01-19T09:52:04.625Z,38.20
2023-01-19T09:54:43.075Z,41.50
2023-01-19T09:57:13.717Z,48.40
2023-01-19T09:59:47.804Z,47.90
2023-01-19T10:02:36.981Z,43.00
2023-01-19T10:05:24.694Z,39.67
2023-01-19T10:08:08.944Z,41.55
2023-01-19T10:10:42.360Z,38.40
2023-01-19T10:13:30.812Z,38.88
2023-01-19T10:16:18.782Z,47.88
2023-01-19T10:18:51.645Z,47.90
2023-01-19T10:21:26.108Z,42.33
2023-01-19T10:23:59.970Z,42.67
2023-01-19T10:26:36.342Z,37.75
2023-01-19T10:29:10.907Z,40.75
2023-01-19T10:31:43.520Z,40.80
2023-01-19T10:34:20.960Z,44.40
2023-01-19T10:37:00.142Z,47.03
2023-01-19T10:39:29.559Z,41.55
2023-01-19T10:42:03.635Z,45.75
2023-01-19T10:44:38.400Z,40.03
2023-01-19T10:47:16.164Z,40.85
2023-01-19T10:49:45.987Z,41.42
2023-01-19T10:54:55.489Z,41.03
2023-01-19T10:57:32.748Z,44.97
2023-01-19T11:00:02.444Z,43.60
2023-01-19T11:02:35.031Z,41.80
2023-01-19T11:05:24.615Z,46.00
2023-01-19T11:07:56.359Z,42.78
2023-01-19T11:10:27.476Z,42.25
2023-01-19T11:13:04.252Z,38.00
2023-01-19T11:15:45.097Z,49.78
2023-01-19T11:18:28.519Z,42.20
2023-01-19T11:21:01.065Z,38.92
2023-01-19T11:23:35.154Z,44.08
2023-01-19T11:26:07.489Z,47.78
2023-01-19T11:28:43.604Z,41.35
2023-01-19T11:31:31.262Z,40.63
2023-01-19T11:34:02.343Z,44.05
2023-01-19T11:36:33.645Z,38.42
2023-01-19T11:39:23.785Z,37.53
2023-01-19T11:41:56.339Z,24.80
2023-01-19T11:44:30.555Z,31.77
2023-01-19T11:47:03.686Z,31.92
2023-01-19T11:49:45.477Z,29.23
2023-01-19T11:52:27.099Z,30.90
2023-01-19T11:55:03.352Z,42.25
2023-01-19T11:57:47.199Z,34.55
2023-01-19T12:02:58.592Z,39.47
2023-01-19T12:05:33.071Z,35.95
2023-01-19T12:08:07.129Z,34.13
2023-01-19T12:10:43.714Z,32.08
2023-01-19T12:13:21.852Z,33.88
2023-01-19T12:15:57.904Z,26.10
2023-01-19T12:18:31.650Z,22.67
2023-01-19T12:21:03.924Z,25.60
2023-01-19T12:23:54.854Z,22.45
2023-01-19T12:26:38.386Z,27.30
2023-01-19T12:29:14.910Z,27.15
2023-01-19T12:31:44.546Z,24.52
2023-01-19T12:34:41.974Z,27.35
2023-01-19T12:37:33.270Z,23.95
2023-01-19T12:40:09.017Z,24.13
2023-01-19T12:42:47.726Z,23.65
2023-01-19T12:45:23.390Z,25.02
2023-01-19T12:47:53.700Z,22.00
2023-01-19T12:50:25.940Z,20.42
2023-01-19T12:52:58.697Z,21.75
2023-01-19T12:55:31.310Z,23.50
2023-01-19T12:58:05.953Z,26.35
2023-01-19T13:00:40.957Z,23.05
2023-01-19T13:03:46.366Z,26.42
2023-01-19T13:06:15.600Z,24.08
2023-01-19T13:09:01.949Z,19.25
2023-01-19T13:11:34.591Z,22.58
2023-01-19T13:14:36.783Z,25.00
2023-01-19T13:17:29.811Z,23.95
2023-01-19T13:20:35.089Z,27.55
2023-01-19T13:23:26.464Z,21.55
2023-01-19T13:26:03.788Z,23.20
2023-01-19T13:28:40.382Z,24.70
2023-01-19T13:31:13.037Z,24.10
2023-01-19T13:33:50.820Z,25.80
2023-01-19T13:36:26.330Z,23.10
2023-01-19T13:38:58.111Z,24.60
2023-01-19T13:41:30.912Z,25.67
2023-01-19T13:44:03.527Z,22.15
2023-01-19T13:46:35.129Z,29.10
2023-01-19T13:49:13.010Z,31.85
2023-01-19T13:51:42.593Z,26.08
2023-01-19T13:54:18.446Z,29.80
2023-01-19T13:56:51.201Z,23.88
2023-01-19T13:59:20.569Z,24.38
2023-01-19T14:01:53.371Z,30.25
2023-01-19T14:04:28.525Z,27.25
2023-01-19T14:07:01.833Z,31.23
2023-01-19T14:09:31.549Z,28.08
2023-01-19T14:12:12.108Z,33.05
2023-01-19T14:14:41.900Z,30.45
2023-01-19T14:20:04.082Z,39.22
2023-01-19T14:22:42.442Z,42.83
2023-01-19T14:25:31.613Z,32.85
2023-01-19T14:28:39.321Z,38.17
2023-01-19T14:31:22.753Z,32.70
2023-01-19T14:33:53.970Z,31.20
2023-01-19T14:36:39.328Z,31.38
2023-01-19T14:39:18.404Z,33.17
2023-01-19T14:41:52.414Z,33.88
2023-01-19T14:44:29.585Z,29.05
2023-01-19T14:46:59.808Z,33.70
2023-01-19T14:49:34.701Z,34.85
2023-01-19T14:52:08.999Z,33.90
2023-01-19T14:54:41.858Z,33.30
2023-01-19T14:57:13.967Z,33.70
2023-01-19T14:59:49.593Z,35.55
2023-01-19T15:02:19.824Z,39.05
2023-01-19T15:04:53.837Z,35.20
2023-01-19T15:07:26.542Z,41.47
2023-01-19T15:09:56.398Z,49.90
2023-01-19T15:12:29.351Z,54.97
2023-01-19T15:14:59.061Z,51.90
2023-01-19T15:17:28.398Z,52.30
2023-01-19T15:19:58.264Z,55.83
2023-01-19T15:22:30.055Z,54.17
2023-01-19T15:25:00.347Z,62.28
2023-01-19T15:27:31.623Z,50.40
2023-01-19T15:30:01.351Z,45.80
2023-01-19T15:32:30.530Z,52.83
2023-01-19T15:34:59.972Z,43.75
2023-01-19T15:37:30.628Z,59.28
2023-01-19T15:40:00.165Z,63.80
2023-01-19T15:42:29.245Z,55.95
2023-01-19T15:44:58.744Z,49.65
2023-01-19T15:47:28.094Z,45.08
2023-01-19T15:49:57.622Z,54.13
2023-01-19T15:52:26.761Z,55.78
2023-01-19T15:54:58.311Z,48.53
2023-01-19T15:57:27.684Z,59.90
2023-01-19T15:59:57.110Z,63.53
2023-01-19T16:02:26.230Z,61.35
2023-01-19T16:04:57.404Z,66.40
2023-01-19T16:07:26.721Z,67.00
2023-01-19T16:09:57.643Z,59.78
2023-01-19T16:12:27.375Z,63.55
2023-01-19T16:17:25.732Z,61.63
2023-01-19T16:19:55.151Z,71.40
2023-01-19T16:22:24.313Z,71.25
2023-01-19T16:24:56.573Z,67.63
2023-01-19T16:27:28.648Z,67.80
2023-01-19T16:30:00.216Z,78.03
2023-01-19T16:32:29.541Z,73.50
2023-01-19T16:34:58.927Z,72.78
2023-01-19T16:37:28.804Z,72.32
2023-01-19T16:39:58.226Z,72.72
2023-01-19T16:42:29.324Z,68.93
2023-01-19T16:44:58.824Z,81.03
2023-01-19T16:47:28.025Z,79.72
2023-01-19T16:49:57.733Z,83.82
2023-01-19T16:52:26.850Z,89.55
2023-01-19T16:54:56.290Z,103.93
2023-01-19T16:57:25.748Z,88.78
2023-01-19T16:59:56.813Z,91.90
2023-01-19T17:02:26.980Z,90.43
2023-01-19T17:04:56.506Z,81.43
2023-01-19T17:07:26.448Z,98.63
2023-01-19T17:09:56.183Z,75.68
2023-01-19T17:12:25.547Z,80.00
2023-01-19T17:14:56.288Z,72.35
2023-01-19T17:17:25.687Z,92.97
2023-01-19T17:19:55.245Z,77.15
2023-01-19T17:22:24.471Z,83.68
2023-01-19T17:24:54.431Z,90.72
2023-01-19T17:27:23.516Z,84.88
2023-01-19T17:29:52.971Z,89.38
2023-01-19T17:32:23.651Z,96.38
2023-01-19T17:34:53.327Z,92.45
2023-01-19T17:37:22.811Z,97.00
2023-01-19T17:39:52.428Z,104.03
2023-01-19T17:42:21.576Z,99.07
2023-01-19T17:47:24.673Z,90.10
2023-01-19T17:49:55.663Z,91.82
2023-01-19T17:52:25.367Z,104.82
2023-01-19T17:57:23.821Z,102.80
2023-01-19T17:59:53.229Z,107.32
2023-01-19T18:02:24.499Z,100.90
2023-01-19T18:04:56.630Z,102.47
2023-01-19T18:07:26.077Z,106.45
2023-01-19T18:09:58.586Z,118.47
2023-01-19T18:12:29.326Z,114.22
2023-01-19T18:14:58.880Z,110.35
2023-01-19T18:17:28.370Z,113.88
2023-01-19T18:20:00.728Z,111.75
2023-01-19T18:22:30.037Z,130.07
2023-01-19T18:24:59.537Z,139.43
2023-01-19T18:27:29.213Z,141.45
2023-01-19T18:32:27.997Z,133.73
2023-01-19T18:34:59.331Z,158.63
2023-01-19T18:37:29.207Z,142.55
2023-01-19T18:42:34.006Z,127.65
2023-01-19T18:45:03.540Z,144.43
2023-01-19T18:47:35.242Z,136.68
2023-01-19T18:50:06.740Z,120.72
2023-01-19T18:52:40.963Z,98.97
2023-01-19T18:57:45.861Z,94.38
2023-01-19T19:00:15.985Z,93.53
2023-01-19T19:02:46.182Z,95.90
2023-01-19T19:05:17.247Z,91.22
2023-01-19T19:07:47.134Z,95.35
2023-01-19T19:10:17.390Z,98.75
2023-01-19T19:12:51.553Z,95.28
2023-01-19T19:15:21.174Z,101.40
2023-01-19T19:17:50.443Z,105.72
2023-01-19T19:20:23.313Z,94.18
2023-01-19T19:22:53.490Z,105.65
2023-01-19T19:25:23.450Z,102.50
2023-01-19T19:27:53.567Z,103.95
2023-01-19T19:30:23.142Z,100.43
2023-01-19T19:32:56.095Z,117.90
2023-01-19T19:35:30.739Z,107.57
2023-01-19T19:38:01.135Z,115.50
2023-01-19T19:40:30.606Z,107.20
2023-01-19T19:43:01.087Z,111.65
2023-01-19T19:45:30.616Z,104.15
2023-01-19T19:48:00.084Z,123.38
2023-01-19T19:50:30.993Z,97.68
2023-01-19T19:53:00.934Z,107.45
2023-01-19T19:57:59.267Z,93.25
2023-01-19T20:00:29.547Z,101.35
2023-01-19T20:05:31.401Z,103.05
2023-01-19T20:08:00.851Z,113.18
2023-01-19T20:12:59.709Z,96.67
2023-01-19T20:15:29.352Z,107.13
2023-01-19T20:18:13.728Z,99.72
2023-01-19T20:20:44.931Z,90.03
2023-01-19T20:23:14.883Z,101.22
2023-01-19T20:25:44.375Z,110.38
2023-01-19T20:28:13.636Z,101.40
2023-01-19T20:30:43.348Z,102.30
2023-01-19T20:33:12.737Z,101.03
2023-01-19T20:35:44.188Z,95.95
2023-01-19T20:38:13.646Z,95.75
2023-01-19T20:40:43.259Z,86.03
2023-01-19T20:43:12.499Z,92.55
2023-01-19T20:45:41.998Z,92.30
2023-01-19T20:48:14.515Z,90.38
2023-01-19T20:50:47.007Z,100.57
2023-01-19T20:53:16.375Z,102.20
2023-01-19T20:55:46.533Z,99.18
2023-01-19T20:58:15.850Z,101.50
2023-01-19T21:00:46.181Z,88.88
2023-01-19T21:03:15.502Z,94.70
2023-01-19T21:05:48.457Z,106.82
2023-01-19T21:08:18.597Z,100.63
2023-01-19T21:10:49.001Z,110.97
2023-01-19T21:13:18.283Z,110.80
2023-01-19T21:15:47.855Z,87.70
2023-01-19T21:18:17.313Z,87.85
2023-01-19T21:20:49.337Z,80.55
2023-01-19T21:23:19.955Z,76.50
2023-01-19T21:25:52.790Z,78.32
2023-01-19T21:28:23.091Z,61.10
2023-01-19T21:30:53.207Z,61.65
2023-01-19T21:33:23.501Z,54.55
2023-01-19T21:35:56.329Z,50.95
2023-01-19T21:38:28.062Z,55.00
2023-01-19T21:40:59.700Z,51.53
2023-01-19T21:43:29.825Z,50.03
2023-01-19T21:46:10.879Z,51.67
2023-01-19T21:48:40.649Z,56.70
2023-01-19T21:51:12.176Z,57.97
2023-01-19T21:53:42.088Z,60.55
2023-01-19T21:56:12.763Z,59.88
2023-01-19T21:58:42.749Z,51.90
2023-01-19T22:01:13.719Z,64.55
2023-01-19T22:03:43.803Z,60.08
2023-01-19T22:06:15.942Z,52.35
2023-01-19T22:08:46.672Z,44.85
2023-01-19T22:11:18.821Z,46.97
2023-01-19T22:13:48.569Z,46.08
2023-01-19T22:16:20.468Z,41.72
2023-01-19T22:18:54.102Z,39.85
2023-01-19T22:21:29.043Z,47.28
2023-01-19T22:24:00.568Z,39.53
2023-01-19T22:26:31.149Z,43.22
2023-01-19T22:29:02.833Z,37.55
2023-01-19T22:31:32.727Z,44.25
2023-01-19T22:34:01.997Z,45.42
2023-01-19T22:36:34.573Z,39.20
2023-01-19T22:39:05.832Z,37.45
2023-01-19T22:41:37.876Z,38.25
2023-01-19T22:44:11.336Z,41.20
2023-01-19T22:46:41.013Z,25.50
2023-01-19T22:49:12.068Z,38.75
2023-01-19T22:51:43.705Z,38.83
2023-01-19T22:54:13.313Z,36.70
2023-01-19T22:59:11.998Z,32.38
2023-01-19T23:01:43.442Z,24.50
2023-01-19T23:04:15.748Z,29.27
2023-01-19T23:06:50.485Z,34.92
2023-01-19T23:09:20.275Z,32.10
2023-01-19T23:11:51.231Z,34.92
2023-01-19T23:14:22.889Z,33.22
2023-01-19T23:16:52.567Z,33.85
2023-01-19T23:19:21.694Z,25.33
2023-01-19T23:21:53.882Z,29.33
2023-01-19T23:24:23.040Z,31.13
2023-01-19T23:26:52.668Z,28.70
2023-01-19T23:29:21.893Z,27.92
2023-01-19T23:31:53.583Z,25.75
2023-01-19T23:34:22.854Z,27.63
2023-01-19T23:36:53.826Z,25.40
2023-01-19T23:39:23.959Z,26.42
2023-01-19T23:41:54.160Z,26.40
2023-01-19T23:44:23.436Z,22.10
2023-01-19T23:46:52.868Z,21.75
2023-01-19T23:49:22.014Z,26.13
2023-01-19T23:51:52.869Z,21.92
2023-01-19T23:54:22.165Z,26.40
2023-01-19T23:56:52.025Z,22.20
2023-01-19T23:59:21.249Z,27.90
